createdAt,value
2022-09-15T00:01:31.220Z,15.57
2022-09-15T00:02:31.696Z,15.56
2022-09-15T00:03:33.198Z,15.62
2022-09-15T00:04:31.406Z,15.57
2022-09-15T00:05:31.417Z,15.62
2022-09-15T00:06:31.378Z,15.60
2022-09-15T00:07:31.375Z,15.56
2022-09-15T00:08:31.405Z,15.57
2022-09-15T00:09:31.352Z,15.56
2022-09-15T00:10:31.367Z,15.59
2022-09-15T00:11:31.336Z,15.59
2022-09-15T00:12:31.317Z,15.59
2022-09-15T00:13:31.311Z,15.57
2022-09-15T00:14:31.332Z,15.59
2022-09-15T00:15:31.341Z,15.59
2022-09-15T00:16:31.366Z,15.57
2022-09-15T00:17:31.260Z,15.54
2022-09-15T00:18:31.261Z,15.51
2022-09-15T00:19:31.253Z,15.51
2022-09-15T00:20:31.268Z,15.47
2022-09-15T00:21:31.237Z,15.46
2022-09-15T00:22:31.223Z,15.47
2022-09-15T00:23:31.201Z,15.46
2022-09-15T00:24:31.191Z,15.41
2022-09-15T00:25:31.201Z,15.38
2022-09-15T00:26:31.191Z,15.39
2022-09-15T00:27:31.164Z,15.38
2022-09-15T00:28:31.163Z,15.36
2022-09-15T00:29:31.154Z,15.38
2022-09-15T00:30:31.181Z,15.41
2022-09-15T00:31:31.156Z,15.36
2022-09-15T00:32:31.112Z,15.39
2022-09-15T00:33:31.104Z,15.38
2022-09-15T00:34:31.112Z,15.44
2022-09-15T00:35:31.091Z,15.44
2022-09-15T00:36:31.085Z,15.41
2022-09-15T00:37:31.078Z,15.38
2022-09-15T00:38:31.054Z,15.38
2022-09-15T00:39:31.034Z,15.35
2022-09-15T00:40:31.107Z,15.34
2022-09-15T00:41:31.046Z,15.32
2022-09-15T00:42:31.016Z,15.31
2022-09-15T00:43:31.016Z,15.28
2022-09-15T00:44:30.996Z,15.29
2022-09-15T00:45:31.023Z,15.28
2022-09-15T00:46:30.999Z,15.28
2022-09-15T00:47:30.985Z,15.28
2022-09-15T00:48:30.955Z,15.28
2022-09-15T00:49:30.924Z,15.28
2022-09-15T00:50:30.926Z,15.27
2022-09-15T00:51:30.937Z,15.23
2022-09-15T00:52:30.935Z,15.21
2022-09-15T00:53:30.889Z,15.20
2022-09-15T00:54:30.878Z,15.19
2022-09-15T00:55:30.894Z,15.23
2022-09-15T00:56:30.889Z,15.20
2022-09-15T00:57:30.858Z,15.17
2022-09-15T00:58:30.857Z,15.19
2022-09-15T00:59:30.834Z,15.19
2022-09-15T01:00:30.821Z,15.17
2022-09-15T01:01:30.930Z,15.19
2022-09-15T01:02:30.851Z,15.16
2022-09-15T01:03:30.792Z,15.14
2022-09-15T01:04:30.780Z,15.14
2022-09-15T01:05:30.759Z,15.17
2022-09-15T01:06:30.777Z,15.14
2022-09-15T01:07:30.773Z,15.11
2022-09-15T01:08:30.751Z,15.16
2022-09-15T01:09:30.717Z,15.13
2022-09-15T01:10:30.887Z,15.14
2022-09-15T01:11:30.713Z,15.09
2022-09-15T01:12:30.710Z,15.06
2022-09-15T01:13:30.682Z,15.02
2022-09-15T01:14:30.682Z,15.01
2022-09-15T01:15:30.652Z,15.01
2022-09-15T01:16:30.703Z,14.96
2022-09-15T01:17:30.666Z,14.95
2022-09-15T01:18:30.625Z,14.94
2022-09-15T01:19:30.615Z,14.95
2022-09-15T01:20:30.614Z,14.89
2022-09-15T01:21:30.591Z,14.92
2022-09-15T01:22:30.613Z,14.94
2022-09-15T01:23:30.583Z,14.89
2022-09-15T01:24:30.577Z,14.88
2022-09-15T01:25:30.561Z,14.84
2022-09-15T01:26:30.560Z,14.86
2022-09-15T01:27:41.999Z,14.84
2022-09-15T01:28:31.544Z,14.83
2022-09-15T01:29:30.525Z,14.83
2022-09-15T01:30:30.506Z,14.81
2022-09-15T01:31:30.518Z,14.78
2022-09-15T01:32:30.502Z,14.80
2022-09-15T01:33:30.477Z,14.80
2022-09-15T01:34:30.455Z,14.77
2022-09-15T01:35:30.450Z,14.80
2022-09-15T01:36:30.456Z,14.81
2022-09-15T01:37:30.459Z,14.78
2022-09-15T01:38:30.421Z,14.80
2022-09-15T01:39:30.408Z,14.75
2022-09-15T01:40:30.439Z,14.77
2022-09-15T01:41:30.388Z,14.77
2022-09-15T01:42:30.399Z,14.75
2022-09-15T01:43:30.397Z,14.73
2022-09-15T01:44:30.357Z,14.70
2022-09-15T01:45:30.407Z,14.73
2022-09-15T01:46:30.351Z,14.73
2022-09-15T01:47:30.326Z,14.73
2022-09-15T01:48:30.339Z,14.69
2022-09-15T01:49:30.310Z,14.70
2022-09-15T01:50:30.291Z,14.69
2022-09-15T01:51:30.280Z,14.73
2022-09-15T01:52:30.284Z,14.72
2022-09-15T01:53:30.296Z,14.69
2022-09-15T01:54:30.284Z,14.70
2022-09-15T01:55:30.253Z,14.68
2022-09-15T01:56:30.231Z,14.69
2022-09-15T01:57:30.250Z,14.69
2022-09-15T01:58:30.242Z,14.70
2022-09-15T01:59:30.208Z,14.70
2022-09-15T02:00:30.194Z,14.69
2022-09-15T02:01:30.253Z,14.69
2022-09-15T02:02:30.249Z,14.69
2022-09-15T02:03:30.185Z,14.65
2022-09-15T02:04:30.165Z,14.69
2022-09-15T02:05:30.157Z,14.69
2022-09-15T02:06:30.143Z,14.62
2022-09-15T02:07:30.135Z,14.62
2022-09-15T02:08:30.147Z,14.64
2022-09-15T02:09:30.102Z,14.64
2022-09-15T02:10:30.083Z,14.64
2022-09-15T02:11:30.093Z,14.62
2022-09-15T02:12:30.074Z,14.60
2022-09-15T02:13:30.074Z,14.61
2022-09-15T02:14:30.045Z,14.61
2022-09-15T02:15:30.048Z,14.64
2022-09-15T02:16:30.098Z,14.64
2022-09-15T02:17:30.034Z,14.65
2022-09-15T02:18:30.033Z,14.61
2022-09-15T02:19:30.002Z,14.62
2022-09-15T02:20:29.979Z,14.58
2022-09-15T02:21:29.986Z,14.61
2022-09-15T02:22:29.967Z,14.62
2022-09-15T02:23:29.968Z,14.61
2022-09-15T02:24:30.044Z,14.62
2022-09-15T02:25:29.947Z,14.61
2022-09-15T02:26:29.939Z,14.60
2022-09-15T02:27:29.937Z,14.60
2022-09-15T02:28:29.900Z,14.60
2022-09-15T02:29:29.888Z,14.60
2022-09-15T02:30:29.891Z,14.61
2022-09-15T02:31:29.927Z,14.65
2022-09-15T02:32:29.866Z,14.64
2022-09-15T02:33:29.856Z,14.65
2022-09-15T02:34:29.852Z,14.62
2022-09-15T02:35:29.833Z,14.65
2022-09-15T02:36:29.842Z,14.60
2022-09-15T02:37:29.822Z,14.64
2022-09-15T02:38:29.811Z,14.58
2022-09-15T02:39:29.813Z,14.57
2022-09-15T02:40:29.889Z,14.52
2022-09-15T02:41:29.853Z,14.55
2022-09-15T02:42:29.791Z,14.51
2022-09-15T02:43:29.752Z,14.51
2022-09-15T02:44:29.748Z,14.47
2022-09-15T02:45:29.775Z,14.46
2022-09-15T02:46:29.734Z,14.43
2022-09-15T02:47:29.744Z,14.40
2022-09-15T02:48:29.704Z,14.39
2022-09-15T02:49:29.696Z,14.40
2022-09-15T02:50:29.683Z,14.37
2022-09-15T02:51:29.672Z,14.37
2022-09-15T02:52:29.682Z,14.33
2022-09-15T02:53:29.652Z,14.33
2022-09-15T02:54:29.641Z,14.32
2022-09-15T02:55:29.632Z,14.32
2022-09-15T02:56:29.626Z,14.33
2022-09-15T02:57:29.634Z,14.29
2022-09-15T02:58:29.614Z,14.32
2022-09-15T02:59:29.606Z,14.35
2022-09-15T03:00:29.567Z,14.32
2022-09-15T03:01:29.614Z,14.32
2022-09-15T03:02:29.607Z,14.36
2022-09-15T03:03:29.563Z,14.32
2022-09-15T03:04:29.546Z,14.33
2022-09-15T03:05:29.525Z,14.32
2022-09-15T03:06:29.548Z,14.37
2022-09-15T03:07:29.507Z,14.33
2022-09-15T03:08:29.508Z,14.32
2022-09-15T03:13:50.364Z,14.28
2022-09-15T03:14:50.655Z,14.25
2022-09-15T03:15:50.623Z,14.24
2022-09-15T03:16:50.666Z,14.22
2022-09-15T03:24:48.233Z,14.21
2022-09-15T03:25:18.960Z,14.17
2022-09-15T03:27:45.168Z,14.15
2022-09-15T03:28:57.154Z,14.12
2022-09-15T03:29:49.314Z,14.10
2022-09-15T03:30:49.029Z,14.12
2022-09-15T03:31:49.859Z,14.12
2022-09-15T03:32:34.729Z,14.09
2022-09-15T03:33:55.704Z,14.09
2022-09-15T03:34:58.461Z,14.09
2022-09-15T03:35:51.939Z,14.07
2022-09-15T03:36:57.741Z,14.09
2022-09-15T03:37:55.670Z,14.04
2022-09-15T03:38:50.976Z,14.06
2022-09-15T03:39:56.382Z,14.04
2022-09-15T03:40:55.645Z,14.06
2022-09-15T03:41:55.620Z,14.04
2022-09-15T03:42:55.977Z,14.03
2022-09-15T03:43:57.654Z,14.00
2022-09-15T03:44:55.635Z,14.00
2022-09-15T03:46:05.867Z,14.03
2022-09-15T03:47:04.182Z,14.00
2022-09-15T03:47:34.549Z,14.03
2022-09-15T03:48:46.193Z,14.02
2022-09-15T03:50:05.879Z,14.02
2022-09-15T03:51:10.461Z,14.00
2022-09-15T03:53:11.428Z,14.03
2022-09-15T03:54:03.075Z,14.02
2022-09-15T03:55:03.077Z,13.97
2022-09-15T03:56:04.775Z,14.00
2022-09-15T03:57:53.918Z,14.02
2022-09-15T03:58:55.216Z,14.04
2022-09-15T03:59:54.160Z,14.02
2022-09-15T04:00:54.207Z,14.00
2022-09-15T04:01:54.239Z,13.99
2022-09-15T04:02:54.174Z,13.97
2022-09-15T04:03:54.096Z,13.96
2022-09-15T04:04:54.075Z,13.95
2022-09-15T04:05:54.088Z,13.97
2022-09-15T04:06:54.066Z,13.96
2022-09-15T04:07:54.048Z,13.96
2022-09-15T04:08:54.045Z,13.95
2022-09-15T04:09:54.028Z,13.96
2022-09-15T04:10:54.054Z,14.02
2022-09-15T04:11:54.000Z,14.00
2022-09-15T04:12:53.989Z,13.97
2022-09-15T04:13:53.996Z,13.99
2022-09-15T04:14:53.975Z,14.00
2022-09-15T04:15:54.003Z,14.00
2022-09-15T04:16:53.978Z,14.00
2022-09-15T04:17:53.959Z,13.95
2022-09-15T04:18:53.930Z,13.96
2022-09-15T04:19:53.936Z,13.97
2022-09-15T04:20:53.918Z,13.96
2022-09-15T04:21:53.957Z,13.96
2022-09-15T04:22:53.902Z,13.96
2022-09-15T04:23:53.889Z,13.99
2022-09-15T04:24:53.894Z,13.97
2022-09-15T04:25:53.852Z,13.99
2022-09-15T04:26:53.891Z,13.99
2022-09-15T04:27:53.853Z,14.03
2022-09-15T04:28:53.843Z,13.99
2022-09-15T04:29:53.871Z,14.04
2022-09-15T04:30:53.813Z,14.06
2022-09-15T04:31:53.953Z,14.03
2022-09-15T04:32:53.795Z,14.03
2022-09-15T04:33:53.777Z,14.09
2022-09-15T04:34:53.797Z,14.12
2022-09-15T04:35:53.761Z,14.18
2022-09-15T04:36:53.765Z,14.15
2022-09-15T04:37:53.734Z,14.20
2022-09-15T04:38:53.765Z,14.21
2022-09-15T04:39:53.789Z,14.21
2022-09-15T04:40:53.717Z,14.21
2022-09-15T04:41:53.726Z,14.22
2022-09-15T04:42:53.690Z,14.22
2022-09-15T04:43:53.789Z,14.22
2022-09-15T04:44:53.672Z,14.25
2022-09-15T04:45:53.662Z,14.25
2022-09-15T04:46:53.748Z,14.25
2022-09-15T04:47:53.638Z,14.25
2022-09-15T04:48:53.627Z,14.20
2022-09-15T04:49:53.628Z,14.24
2022-09-15T04:50:53.610Z,14.21
2022-09-15T04:51:53.593Z,14.22
2022-09-15T04:52:53.627Z,14.21
2022-09-15T04:53:53.580Z,14.24
2022-09-15T04:54:53.569Z,14.22
2022-09-15T04:55:53.561Z,14.21
2022-09-15T04:56:53.561Z,14.21
2022-09-15T04:57:53.561Z,14.24
2022-09-15T04:58:53.567Z,14.20
2022-09-15T04:59:53.526Z,14.24
2022-09-15T05:00:53.595Z,14.24
2022-09-15T05:01:53.541Z,14.22
2022-09-15T05:02:53.503Z,14.21
2022-09-15T05:03:53.466Z,14.22
2022-09-15T05:04:53.470Z,14.24
2022-09-15T05:05:53.453Z,14.29
2022-09-15T05:06:53.433Z,14.32
2022-09-15T05:07:53.459Z,14.36
2022-09-15T05:08:53.613Z,14.36
2022-09-15T05:09:53.405Z,14.40
2022-09-15T05:10:53.402Z,14.36
2022-09-15T05:11:53.380Z,14.39
2022-09-15T05:12:53.445Z,14.39
2022-09-15T05:13:53.450Z,14.39
2022-09-15T05:14:53.364Z,14.40
2022-09-15T05:15:53.399Z,14.40
2022-09-15T05:16:53.341Z,14.46
2022-09-15T05:17:53.348Z,14.52
2022-09-15T05:18:53.330Z,14.57
2022-09-15T05:19:53.343Z,14.55
2022-09-15T05:20:53.317Z,14.58
2022-09-15T05:21:53.328Z,14.60
2022-09-15T05:22:53.268Z,14.62
2022-09-15T05:23:53.333Z,14.64
2022-09-15T05:24:53.278Z,14.75
2022-09-15T05:25:53.268Z,15.06
2022-09-15T05:26:53.232Z,15.50
2022-09-15T05:27:53.235Z,16.01
2022-09-15T05:28:53.292Z,16.33
2022-09-15T05:30:09.735Z,16.63
2022-09-15T05:30:54.307Z,16.97
2022-09-15T05:31:53.213Z,17.15
2022-09-15T05:32:53.198Z,17.34
2022-09-15T05:33:53.159Z,17.51
2022-09-15T05:34:53.147Z,17.75
2022-09-15T05:35:53.136Z,17.74
2022-09-15T05:36:53.135Z,17.89
2022-09-15T05:37:53.145Z,18.02
2022-09-15T05:38:53.097Z,18.17
2022-09-15T05:39:53.131Z,18.21
2022-09-15T05:40:53.097Z,18.30
2022-09-15T05:41:53.246Z,18.29
2022-09-15T05:42:53.094Z,18.36
2022-09-15T05:43:53.117Z,18.48
2022-09-15T05:44:53.059Z,18.62
2022-09-15T05:45:53.039Z,18.82
2022-09-15T05:46:53.121Z,19.06
2022-09-15T05:47:53.064Z,19.18
2022-09-15T05:48:52.999Z,18.92
2022-09-15T05:49:52.993Z,18.66
2022-09-15T05:50:52.989Z,18.63
2022-09-15T05:51:53.006Z,18.39
2022-09-15T05:52:52.990Z,17.86
2022-09-15T05:53:53.014Z,17.77
2022-09-15T05:54:55.786Z,17.81
2022-09-15T05:55:53.937Z,17.70
2022-09-15T05:56:52.962Z,17.77
2022-09-15T05:57:52.931Z,17.63
2022-09-15T05:58:53.078Z,17.71
2022-09-15T05:59:52.924Z,17.51
2022-09-15T06:00:52.914Z,17.41
2022-09-15T06:01:52.993Z,17.44
2022-09-15T06:02:52.915Z,17.82
2022-09-15T06:03:53.041Z,18.15
2022-09-15T06:04:52.892Z,18.17
2022-09-15T06:05:52.834Z,18.17
2022-09-15T06:06:52.814Z,18.41
2022-09-15T06:07:52.842Z,18.25
2022-09-15T06:08:57.009Z,17.82
2022-09-15T06:09:53.784Z,17.22
2022-09-15T06:10:52.894Z,16.64
2022-09-15T06:11:52.781Z,16.48
2022-09-15T06:12:52.756Z,16.41
2022-09-15T06:13:52.852Z,16.28
2022-09-15T06:14:52.768Z,16.14
2022-09-15T06:15:52.786Z,16.01
2022-09-15T06:16:52.707Z,15.94
2022-09-15T06:17:52.717Z,15.83
2022-09-15T06:18:52.984Z,15.75
2022-09-15T06:19:52.709Z,15.57
2022-09-15T06:20:52.682Z,15.49
2022-09-15T06:21:52.667Z,15.43
2022-09-15T06:22:52.656Z,15.36
2022-09-15T06:23:52.751Z,15.32
2022-09-15T06:24:52.864Z,15.36
2022-09-15T06:25:52.612Z,15.35
2022-09-15T06:26:52.618Z,15.34
2022-09-15T06:27:52.596Z,15.34
2022-09-15T06:28:52.665Z,15.32
2022-09-15T06:29:52.625Z,15.38
2022-09-15T06:30:52.651Z,15.44
2022-09-15T06:31:52.600Z,15.47
2022-09-15T06:32:52.542Z,15.59
2022-09-15T06:33:52.779Z,15.72
2022-09-15T06:34:52.530Z,15.90
2022-09-15T06:35:52.529Z,15.94
2022-09-15T06:36:52.526Z,15.90
2022-09-15T06:37:52.484Z,15.82
2022-09-15T06:38:52.683Z,15.83
2022-09-15T06:39:52.494Z,15.76
2022-09-15T06:40:52.484Z,15.71
2022-09-15T06:42:02.139Z,15.59
2022-09-15T06:42:53.474Z,15.60
2022-09-15T06:43:52.622Z,15.62
2022-09-15T06:44:52.497Z,15.62
2022-09-15T06:45:52.441Z,15.56
2022-09-15T06:46:52.407Z,15.59
2022-09-15T06:48:13.369Z,15.59
2022-09-15T06:48:53.501Z,15.69
2022-09-15T06:49:52.579Z,15.80
2022-09-15T06:50:52.591Z,15.76
2022-09-15T06:51:52.392Z,15.76
2022-09-15T06:52:52.530Z,15.89
2022-09-15T06:53:52.551Z,15.93
2022-09-15T06:54:52.367Z,15.93
2022-09-15T06:55:52.469Z,15.94
2022-09-15T06:56:52.482Z,15.97
2022-09-15T06:57:52.582Z,16.04
2022-09-15T06:58:52.412Z,16.00
2022-09-15T06:59:53.123Z,16.02
2022-09-15T07:00:52.244Z,15.97
2022-09-15T07:01:52.337Z,15.93
2022-09-15T07:02:52.433Z,15.84
2022-09-15T07:03:53.427Z,15.82
2022-09-15T07:04:52.387Z,15.93
2022-09-15T07:05:52.275Z,15.97
2022-09-15T07:06:52.336Z,16.01
2022-09-15T07:07:52.426Z,16.07
2022-09-15T07:08:52.400Z,16.08
2022-09-15T07:09:52.282Z,16.02
2022-09-15T07:10:52.308Z,16.05
2022-09-15T07:11:52.215Z,16.04
2022-09-15T07:12:52.326Z,16.07
2022-09-15T07:13:52.472Z,16.07
2022-09-15T07:14:52.185Z,16.20
2022-09-15T07:15:52.231Z,16.14
2022-09-15T07:16:52.247Z,16.11
2022-09-15T07:17:52.236Z,16.04
2022-09-15T07:18:52.301Z,16.05
2022-09-15T07:19:52.195Z,16.15
2022-09-15T07:20:52.365Z,16.14
2022-09-15T07:21:52.226Z,16.20
2022-09-15T07:22:52.064Z,16.21
2022-09-15T07:23:52.314Z,16.28
2022-09-15T07:24:52.308Z,16.28
2022-09-15T07:25:52.333Z,16.17
2022-09-15T07:26:52.113Z,16.09
2022-09-15T07:27:52.275Z,16.01
2022-09-15T07:28:52.480Z,15.94
2022-09-15T07:29:52.187Z,15.87
2022-09-15T07:30:52.091Z,15.86
2022-09-15T07:31:51.983Z,15.93
2022-09-15T07:32:51.936Z,16.08
2022-09-15T07:33:52.265Z,16.20
2022-09-15T07:34:56.503Z,16.28
2022-09-15T07:35:52.902Z,16.28
2022-09-15T07:36:51.881Z,16.34
2022-09-15T07:37:51.872Z,16.42
2022-09-15T07:38:51.893Z,16.46
2022-09-15T07:39:55.956Z,16.45
2022-09-15T07:40:51.901Z,16.42
2022-09-15T07:41:51.927Z,16.48
2022-09-15T07:42:51.825Z,16.48
2022-09-15T07:43:51.910Z,16.43
2022-09-15T07:44:51.821Z,16.28
2022-09-15T07:45:51.811Z,16.25
2022-09-15T07:46:51.781Z,16.20
2022-09-15T07:47:51.761Z,16.11
2022-09-15T07:48:52.102Z,16.02
2022-09-15T07:49:51.805Z,16.08
2022-09-15T07:50:51.748Z,16.20
2022-09-15T07:51:51.735Z,16.21
2022-09-15T07:52:51.729Z,16.17
2022-09-15T07:53:51.752Z,16.24
2022-09-15T07:54:51.710Z,16.24
2022-09-15T07:55:51.686Z,16.31
2022-09-15T07:56:51.667Z,16.43
2022-09-15T07:57:51.679Z,16.42
2022-09-15T07:58:51.697Z,16.35
2022-09-15T07:59:51.662Z,16.41
2022-09-15T08:00:51.728Z,16.42
2022-09-15T08:01:51.750Z,16.45
2022-09-15T08:02:51.616Z,16.35
2022-09-15T08:03:51.730Z,16.34
2022-09-15T08:04:51.579Z,16.28
2022-09-15T08:05:51.574Z,16.25
2022-09-15T08:06:51.559Z,16.23
2022-09-15T08:07:51.550Z,16.21
2022-09-15T08:08:55.059Z,16.28
2022-09-15T08:09:51.555Z,16.41
2022-09-15T08:10:51.511Z,16.52
2022-09-15T08:11:51.511Z,16.64
2022-09-15T08:12:51.492Z,16.78
2022-09-15T08:13:51.522Z,16.75
2022-09-15T08:14:51.522Z,16.78
2022-09-15T08:15:51.485Z,16.79
2022-09-15T08:16:51.461Z,16.91
2022-09-15T08:17:51.450Z,16.82
2022-09-15T08:18:51.643Z,16.73
2022-09-15T08:19:51.443Z,16.78
2022-09-15T08:20:51.447Z,16.78
2022-09-15T08:21:51.425Z,16.85
2022-09-15T08:22:51.405Z,17.00
2022-09-15T08:23:51.883Z,17.19
2022-09-15T08:24:51.390Z,17.38
2022-09-15T08:25:51.375Z,17.51
2022-09-15T08:26:51.352Z,17.51
2022-09-15T08:27:51.367Z,17.48
2022-09-15T08:28:51.402Z,17.43
2022-09-15T08:29:51.347Z,17.41
2022-09-15T08:30:51.378Z,17.38
2022-09-15T08:31:51.296Z,17.31
2022-09-15T08:32:51.301Z,17.33
2022-09-15T08:33:51.309Z,17.38
2022-09-15T08:34:51.305Z,17.37
2022-09-15T08:35:51.268Z,17.46
2022-09-15T08:36:51.246Z,17.51
2022-09-15T08:37:51.254Z,17.49
2022-09-15T08:38:51.356Z,17.37
2022-09-15T08:39:51.270Z,17.43
2022-09-15T08:40:51.229Z,17.51
2022-09-15T08:41:51.239Z,17.62
2022-09-15T08:42:51.179Z,17.62
2022-09-15T08:43:51.347Z,17.74
2022-09-15T08:44:51.209Z,17.87
2022-09-15T08:45:51.177Z,18.03
2022-09-15T08:46:51.231Z,18.17
2022-09-15T08:47:51.166Z,18.07
2022-09-15T08:48:51.130Z,18.07
2022-09-15T08:49:52.466Z,17.95
2022-09-15T08:50:51.114Z,17.93
2022-09-15T08:51:52.078Z,17.79
2022-09-15T08:52:51.082Z,17.74
2022-09-15T08:53:51.108Z,17.59
2022-09-15T08:54:51.094Z,17.62
2022-09-15T08:55:51.045Z,17.51
2022-09-15T08:56:51.051Z,17.54
2022-09-15T08:57:51.025Z,17.33
2022-09-15T08:58:51.009Z,17.34
2022-09-15T08:59:51.056Z,17.25
2022-09-15T09:00:51.021Z,17.22
2022-09-15T09:01:51.038Z,17.15
2022-09-15T09:02:51.015Z,17.18
2022-09-15T09:03:50.968Z,17.28
2022-09-15T09:04:50.984Z,17.21
2022-09-15T09:05:50.974Z,17.19
2022-09-15T09:06:50.971Z,17.22
2022-09-15T09:07:50.926Z,17.25
2022-09-15T09:08:51.054Z,17.28
2022-09-15T09:09:50.986Z,17.36
2022-09-15T09:10:50.907Z,17.34
2022-09-15T09:11:50.885Z,17.33
2022-09-15T09:12:50.891Z,17.34
2022-09-15T09:13:50.899Z,17.34
2022-09-15T09:14:50.859Z,17.36
2022-09-15T09:15:50.904Z,17.30
2022-09-15T09:16:50.834Z,17.28
2022-09-15T09:17:50.835Z,17.33
2022-09-15T09:18:50.819Z,17.33
2022-09-15T09:19:50.814Z,17.36
2022-09-15T09:20:50.810Z,17.31
2022-09-15T09:21:50.779Z,17.23
2022-09-15T09:22:50.763Z,17.25
2022-09-15T09:23:50.779Z,17.26
2022-09-15T09:24:50.767Z,17.31
2022-09-15T09:25:50.744Z,17.37
2022-09-15T09:26:50.730Z,17.44
2022-09-15T09:27:50.722Z,17.52
2022-09-15T09:28:50.719Z,17.71
2022-09-15T09:29:50.732Z,17.74
2022-09-15T09:30:50.762Z,17.70
2022-09-15T09:31:50.701Z,17.59
2022-09-15T09:32:50.662Z,17.58
2022-09-15T09:33:50.821Z,17.62
2022-09-15T09:34:50.675Z,17.64
2022-09-15T09:35:51.254Z,17.62
2022-09-15T09:36:50.759Z,17.64
2022-09-15T09:37:50.658Z,17.68
2022-09-15T09:38:50.596Z,17.72
2022-09-15T09:39:50.893Z,17.74
2022-09-15T09:40:50.579Z,17.81
2022-09-15T09:41:50.586Z,17.86
2022-09-15T09:42:50.575Z,17.81
2022-09-15T09:43:50.600Z,17.92
2022-09-15T09:44:50.576Z,17.90
2022-09-15T09:45:50.587Z,17.86
2022-09-15T09:46:50.522Z,17.86
2022-09-15T09:47:50.523Z,17.90
2022-09-15T09:48:50.523Z,17.92
2022-09-15T09:49:50.517Z,18.10
2022-09-15T09:50:50.485Z,18.25
2022-09-15T09:51:50.488Z,18.30
2022-09-15T09:52:50.480Z,18.33
2022-09-15T09:53:50.546Z,18.36
2022-09-15T09:54:50.478Z,18.36
2022-09-15T09:55:50.420Z,18.35
2022-09-15T09:56:50.430Z,18.25
2022-09-15T09:57:50.402Z,18.36
2022-09-15T09:58:50.391Z,18.52
2022-09-15T09:59:50.416Z,18.60
2022-09-15T10:00:50.380Z,18.58
2022-09-15T10:01:50.429Z,18.58
2022-09-15T10:02:50.380Z,18.58
2022-09-15T10:03:50.341Z,18.60
2022-09-15T10:04:50.390Z,18.65
2022-09-15T10:05:50.333Z,18.70
2022-09-15T10:06:50.305Z,18.81
2022-09-15T10:07:50.308Z,18.80
2022-09-15T10:08:50.285Z,18.81
2022-09-15T10:09:50.339Z,18.90
2022-09-15T10:10:50.278Z,18.91
2022-09-15T10:11:50.269Z,18.87
2022-09-15T10:12:50.258Z,18.85
2022-09-15T10:13:50.299Z,18.94
2022-09-15T10:14:52.024Z,19.25
2022-09-15T10:15:50.218Z,19.40
2022-09-15T10:16:50.263Z,19.55
2022-09-15T10:17:50.240Z,19.88
2022-09-15T10:18:54.140Z,19.87
2022-09-15T10:19:50.176Z,19.88
2022-09-15T10:20:50.165Z,19.83
2022-09-15T10:21:50.168Z,19.77
2022-09-15T10:22:50.167Z,19.69
2022-09-15T10:23:50.130Z,19.65
2022-09-15T10:24:50.143Z,19.40
2022-09-15T10:25:59.143Z,19.13
2022-09-15T10:26:55.969Z,18.99
2022-09-15T10:27:57.636Z,18.87
2022-09-15T10:29:04.878Z,18.75
2022-09-15T10:30:05.017Z,18.67
2022-09-15T10:31:04.680Z,18.55
2022-09-15T10:32:04.944Z,18.57
2022-09-15T10:33:05.041Z,18.84
2022-09-15T10:34:04.703Z,19.00
2022-09-15T10:35:11.029Z,19.13
2022-09-15T10:35:56.913Z,19.36
2022-09-15T10:37:04.570Z,19.50
2022-09-15T10:38:01.427Z,19.59
2022-09-15T10:39:04.126Z,19.44
2022-09-15T10:40:04.882Z,19.29
2022-09-15T10:41:04.507Z,19.32
2022-09-15T10:42:11.034Z,19.47
2022-09-15T10:42:56.955Z,19.66
2022-09-15T10:43:49.979Z,19.88
2022-09-15T10:45:20.815Z,20.06
2022-09-15T10:46:25.484Z,19.99
2022-09-15T10:47:10.931Z,19.87
2022-09-15T10:48:25.596Z,19.91
2022-09-15T10:49:29.282Z,19.81
2022-09-15T10:50:10.921Z,19.88
2022-09-15T10:50:49.871Z,20.08
2022-09-15T10:51:49.852Z,20.20
2022-09-15T10:52:49.867Z,20.29
2022-09-15T10:53:50.010Z,20.11
2022-09-15T10:54:53.746Z,20.10
2022-09-15T10:55:52.654Z,20.01
2022-09-15T10:56:49.805Z,19.87
2022-09-15T10:57:49.808Z,20.03
2022-09-15T10:58:49.828Z,20.17
2022-09-15T11:00:21.547Z,20.10
2022-09-15T11:01:05.875Z,20.05
2022-09-15T11:03:25.742Z,19.50
2022-09-15T11:04:02.124Z,19.36
2022-09-15T11:05:29.913Z,19.10
2022-09-15T11:06:05.419Z,18.73
2022-09-15T11:07:04.659Z,18.57
2022-09-15T11:07:59.525Z,18.57
2022-09-15T11:08:58.165Z,18.66
2022-09-15T11:09:58.179Z,18.63
2022-09-15T11:10:58.146Z,18.54
2022-09-15T11:11:58.142Z,18.60
2022-09-15T11:12:58.153Z,18.72
2022-09-15T11:13:58.137Z,18.75
2022-09-15T11:14:58.164Z,18.76
2022-09-15T11:15:58.138Z,18.69
2022-09-15T11:16:58.084Z,18.66
2022-09-15T11:17:58.081Z,18.57
2022-09-15T11:18:59.473Z,18.55
2022-09-15T11:19:58.048Z,18.57
2022-09-15T11:20:58.038Z,18.58
2022-09-15T11:21:58.041Z,18.58
2022-09-15T11:22:58.242Z,18.57
2022-09-15T11:23:58.017Z,18.48
2022-09-15T11:24:58.031Z,18.32
2022-09-15T11:25:57.989Z,18.36
2022-09-15T11:26:58.011Z,18.35
2022-09-15T11:27:57.998Z,18.32
2022-09-15T11:30:13.856Z,18.44
2022-09-15T11:31:10.911Z,18.55
2022-09-15T11:32:11.005Z,18.65
2022-09-15T11:33:10.870Z,18.76
2022-09-15T11:34:21.074Z,18.87
2022-09-15T11:35:10.830Z,18.95
2022-09-15T11:36:11.294Z,18.99
2022-09-15T11:37:10.831Z,19.06
2022-09-15T11:38:13.071Z,19.11
2022-09-15T11:39:22.248Z,19.19
2022-09-15T11:40:11.815Z,19.26
2022-09-15T11:41:10.791Z,19.37
2022-09-15T11:42:10.787Z,19.65
2022-09-15T11:43:10.769Z,19.74
2022-09-15T11:44:14.695Z,19.73
2022-09-15T11:45:11.774Z,19.76
2022-09-15T11:46:10.756Z,19.81
2022-09-15T11:47:10.742Z,19.76
2022-09-15T11:48:10.743Z,19.77
2022-09-15T11:49:10.722Z,19.66
2022-09-15T11:50:10.715Z,19.63
2022-09-15T11:51:10.706Z,19.51
2022-09-15T11:52:10.658Z,19.28
2022-09-15T11:53:10.651Z,19.22
2022-09-15T11:54:11.018Z,19.13
2022-09-15T11:55:10.619Z,18.94
2022-09-15T11:56:10.803Z,18.80
2022-09-15T11:57:10.607Z,18.67
2022-09-15T11:58:10.594Z,18.65
2022-09-15T11:59:10.594Z,18.60
2022-09-15T12:00:10.624Z,18.60
2022-09-15T12:01:10.598Z,18.50
2022-09-15T12:02:10.583Z,18.44
2022-09-15T12:03:10.622Z,18.36
2022-09-15T12:04:10.528Z,18.32
2022-09-15T12:05:11.148Z,18.32
2022-09-15T12:06:10.537Z,18.30
2022-09-15T12:07:13.720Z,18.35
2022-09-15T12:08:10.493Z,18.35
2022-09-15T12:09:10.496Z,18.32
2022-09-15T12:10:10.514Z,18.39
2022-09-15T12:11:10.458Z,18.50
2022-09-15T12:12:10.458Z,18.55
2022-09-15T12:13:10.436Z,18.44
2022-09-15T12:14:10.467Z,18.45
2022-09-15T12:15:10.432Z,18.54
2022-09-15T12:16:10.450Z,18.62
2022-09-15T12:17:10.394Z,18.81
2022-09-15T12:18:34.278Z,18.73
2022-09-15T12:19:11.441Z,18.58
2022-09-15T12:20:10.421Z,18.51
2022-09-15T12:21:10.353Z,18.47
2022-09-15T12:22:10.362Z,18.39
2022-09-15T12:23:10.344Z,18.29
2022-09-15T12:24:10.370Z,18.20
2022-09-15T12:25:10.333Z,18.05
2022-09-15T12:26:10.307Z,17.99
2022-09-15T12:27:10.304Z,17.99
2022-09-15T12:28:10.286Z,17.97
2022-09-15T12:29:10.294Z,18.00
2022-09-15T12:30:10.278Z,18.00
2022-09-15T12:31:10.278Z,18.00
2022-09-15T12:32:10.257Z,18.03
2022-09-15T12:33:10.229Z,18.12
2022-09-15T12:34:10.219Z,18.23
2022-09-15T12:35:13.465Z,18.25
2022-09-15T12:36:10.207Z,18.36
2022-09-15T12:37:10.197Z,18.54
2022-09-15T12:38:10.199Z,18.57
2022-09-15T12:39:10.167Z,18.51
2022-09-15T12:40:10.226Z,18.47
2022-09-15T12:41:10.145Z,18.51
2022-09-15T12:42:10.151Z,18.60
2022-09-15T12:43:10.215Z,18.82
2022-09-15T12:44:10.137Z,19.13
2022-09-15T12:45:10.104Z,19.23
2022-09-15T12:46:10.146Z,19.29
2022-09-15T12:47:10.084Z,19.40
2022-09-15T12:48:10.114Z,19.37
2022-09-15T12:49:10.119Z,19.47
2022-09-15T12:50:10.049Z,19.61
2022-09-15T12:51:10.035Z,19.23
2022-09-15T12:52:10.040Z,19.00
2022-09-15T12:53:10.043Z,18.94
2022-09-15T12:54:10.032Z,18.98
2022-09-15T12:55:10.000Z,18.81
2022-09-15T12:56:10.037Z,18.72
2022-09-15T12:57:10.014Z,18.78
2022-09-15T12:58:09.997Z,18.81
2022-09-15T12:59:09.964Z,18.84
2022-09-15T13:00:09.964Z,18.84
2022-09-15T13:01:17.919Z,18.85
2022-09-15T13:02:10.998Z,18.84
2022-09-15T13:03:10.022Z,18.72
2022-09-15T13:04:09.918Z,18.66
2022-09-15T13:05:09.893Z,18.52
2022-09-15T13:06:09.952Z,18.44
2022-09-15T13:07:09.934Z,18.47
2022-09-15T13:08:09.868Z,18.45
2022-09-15T13:09:09.855Z,18.51
2022-09-15T13:10:09.835Z,18.67